Time;durP1;ratioP1;P1;durP2;ratioP2;P2;SDS_P1;SDS_P2;PMS_P1;PMS_P2;Temp;Humidity;BMP_temperature;BMP_pressure;BME280_temperature;BME280_humidity;BME280_pressure;Samples;Min_cycle;Max_cycle;Signal;HPM_P1;HPM_P2
2022/01/05 00:02:13;;;;;;;23.00;12.33;;;4.10;92.50;;;;;;5063142;28;20182;-78
2022/01/05 00:04:39;;;;;;;18.43;11.13;;;4.10;92.30;;;;;;5066422;28;20179;-75
2022/01/05 00:07:07;;;;;;;22.30;12.27;;;4.20;92.30;;;;;;5066087;28;20221;-74
2022/01/05 00:09:33;;;;;;;22.37;12.67;;;4.20;92.20;;;;;;5059043;28;20871;-76
2022/01/05 00:11:59;;;;;;;17.53;11.83;;;4.20;92.30;;;;;;5061648;28;20193;-76
2022/01/05 00:14:25;;;;;;;19.67;10.93;;;4.20;92.40;;;;;;5066138;28;20183;-74
2022/01/05 00:16:51;;;;;;;19.77;11.40;;;4.20;92.00;;;;;;5066373;28;20190;-74
2022/01/05 00:19:17;;;;;;;17.13;10.43;;;4.20;91.70;;;;;;5060190;28;20240;-74
2022/01/05 00:21:42;;;;;;;18.53;11.40;;;4.20;91.50;;;;;;5064059;28;20240;-74
2022/01/05 00:24:08;;;;;;;18.70;11.57;;;4.20;91.50;;;;;;5064747;28;20198;-75
2022/01/05 00:26:35;;;;;;;17.47;10.47;;;4.20;91.50;;;;;;5062559;28;20189;-74
2022/01/05 00:29:01;;;;;;;15.47;10.13;;;4.20;91.30;;;;;;5061742;28;20182;-74
2022/01/05 00:31:26;;;;;;;19.57;12.23;;;4.20;91.30;;;;;;5064375;28;20693;-73
2022/01/05 00:33:53;;;;;;;17.97;11.10;;;4.20;91.20;;;;;;5065653;28;20195;-76
2022/01/05 00:36:19;;;;;;;20.57;11.43;;;4.20;91.10;;;;;;5064752;28;20298;-75
2022/01/05 00:38:45;;;;;;;21.00;10.90;;;4.20;91.20;;;;;;5063061;28;20262;-75
2022/01/05 00:41:12;;;;;;;18.37;11.57;;;4.20;91.10;;;;;;5063568;28;20702;-75
2022/01/05 00:43:38;;;;;;;23.60;11.70;;;4.20;91.10;;;;;;5063202;28;20185;-75
2022/01/05 00:46:04;;;;;;;21.37;10.63;;;4.10;91.20;;;;;;5062228;28;20260;-74
2022/01/05 00:48:32;;;;;;;19.53;11.53;;;4.10;91.50;;;;;;5062583;28;20662;-73
2022/01/05 00:51:00;;;;;;;18.67;10.33;;;4.20;91.30;;;;;;5080352;28;20359;-74
2022/01/05 00:53:26;;;;;;;16.23;9.00;;;4.20;91.40;;;;;;5063217;28;20198;-74
2022/01/05 00:55:52;;;;;;;23.70;11.63;;;4.20;91.40;;;;;;5062683;28;20673;-74
2022/01/05 00:58:18;;;;;;;21.97;10.83;;;4.20;91.50;;;;;;5057923;28;20195;-76
2022/01/05 01:00:44;;;;;;;16.63;11.03;;;4.20;91.50;;;;;;5063823;28;20222;-75
2022/01/05 01:03:10;;;;;;;19.17;10.20;;;4.20;91.50;;;;;;5062994;28;20270;-75
2022/01/05 01:05:36;;;;;;;26.77;10.43;;;4.20;91.50;;;;;;5064384;28;20198;-75
2022/01/05 01:08:02;;;;;;;19.30;10.47;;;4.20;91.40;;;;;;5060364;28;20590;-75
2022/01/05 01:10:27;;;;;;;17.77;9.83;;;4.30;91.40;;;;;;5062748;28;20175;-75
2022/01/05 01:12:53;;;;;;;18.20;9.57;;;4.30;91.30;;;;;;5061677;28;20670;-75
2022/01/05 01:15:19;;;;;;;19.17;10.27;;;4.30;91.10;;;;;;5067636;28;20314;-74
2022/01/05 01:17:45;;;;;;;14.90;9.60;;;4.20;91.20;;;;;;5064145;28;20653;-74
2022/01/05 01:20:11;;;;;;;15.87;10.43;;;4.20;91.00;;;;;;5065633;28;20280;-74
2022/01/05 01:22:36;;;;;;;21.23;8.87;;;4.20;90.90;;;;;;5066052;28;21077;-74
2022/01/05 01:25:05;;;;;;;17.03;8.40;;;4.20;90.90;;;;;;5068600;28;20216;-75
2022/01/05 01:27:31;;;;;;;16.50;9.53;;;4.20;91.00;;;;;;5064975;28;20286;-74
2022/01/05 01:29:57;;;;;;;13.97;9.50;;;4.20;90.90;;;;;;5064439;28;20183;-74
2022/01/05 01:32:23;;;;;;;17.67;9.17;;;4.20;90.80;;;;;;5064830;28;20179;-75
2022/01/05 01:34:48;;;;;;;19.00;10.10;;;4.20;90.90;;;;;;5067112;28;20186;-75
2022/01/05 01:37:14;;;;;;;14.03;10.07;;;4.20;90.90;;;;;;5066396;28;20175;-74
2022/01/05 01:39:40;;;;;;;14.93;9.67;;;4.20;90.80;;;;;;5065645;28;20259;-74
2022/01/05 01:42:06;;;;;;;19.33;9.50;;;4.20;90.70;;;;;;5066252;28;20672;-75
2022/01/05 01:44:33;;;;;;;23.03;9.93;;;4.20;90.70;;;;;;5066142;28;20202;-75
2022/01/05 01:46:59;;;;;;;14.80;9.20;;;4.20;90.80;;;;;;5067414;28;20586;-75
2022/01/05 01:49:25;;;;;;;13.70;9.40;;;4.20;90.60;;;;;;5067745;28;20190;-75
2022/01/05 01:51:50;;;;;;;18.77;9.73;;;4.10;90.60;;;;;;5066914;28;20183;-75
2022/01/05 01:54:17;;;;;;;16.10;8.80;;;4.10;90.50;;;;;;5068150;28;20190;-75
2022/01/05 01:56:46;;;;;;;13.20;9.23;;;4.10;90.60;;;;;;5065439;28;20832;-75
2022/01/05 01:59:12;;;;;;;19.53;9.83;;;4.10;90.60;;;;;;5062077;28;20194;-75
2022/01/05 02:01:40;;;;;;;14.00;9.30;;;4.00;90.70;;;;;;5065314;28;20187;-75
2022/01/05 02:04:05;;;;;;;17.57;10.27;;;4.00;90.70;;;;;;5066410;28;20191;-75
2022/01/05 02:06:31;;;;;;;17.83;10.53;;;4.00;91.10;;;;;;5066954;28;20189;-74
2022/01/05 02:08:59;;;;;;;13.43;8.60;;;4.00;91.10;;;;;;5067158;28;20179;-75
2022/01/05 02:11:25;;;;;;;13.73;9.43;;;4.00;90.90;;;;;;5067859;28;20193;-75
2022/01/05 02:13:51;;;;;;;14.40;8.80;;;4.00;90.90;;;;;;5066488;28;20319;-75
2022/01/05 02:16:22;;;;;;;12.90;7.93;;;3.90;90.90;;;;;;5065119;28;20190;-75
2022/01/05 02:18:59;;;;;;;14.50;8.43;;;3.90;91.00;;;;;;5062835;28;20579;-75
2022/01/05 02:21:30;;;;;;;17.13;9.47;;;3.90;91.20;;;;;;5066130;28;20229;-75
2022/01/05 02:23:56;;;;;;;13.30;9.20;;;3.90;91.10;;;;;;5065583;28;20721;-75
2022/01/05 02:26:22;;;;;;;12.63;9.20;;;3.90;91.30;;;;;;5066945;28;20257;-74
2022/01/05 02:28:48;;;;;;;18.03;9.93;;;3.80;91.30;;;;;;5062272;28;20255;-75
2022/01/05 02:31:14;;;;;;;17.30;9.10;;;3.80;91.30;;;;;;5064034;28;20186;-74
2022/01/05 02:33:40;;;;;;;15.33;8.57;;;3.80;91.30;;;;;;5064744;28;20212;-75
2022/01/05 02:36:07;;;;;;;24.10;9.57;;;3.80;91.30;;;;;;5062348;28;20171;-75
2022/01/05 02:38:33;;;;;;;14.43;8.33;;;3.80;91.20;;;;;;5063759;28;20179;-74
2022/01/05 02:41:08;;;;;;;12.93;8.50;;;3.80;91.30;;;;;;5064375;28;20221;-75
2022/01/05 02:43:35;;;;;;;21.03;8.60;;;3.80;91.40;;;;;;5065025;28;20179;-74
2022/01/05 02:46:02;;;;;;;12.57;8.77;;;3.80;91.50;;;;;;5065410;28;20186;-75
2022/01/05 02:48:28;;;;;;;14.63;9.10;;;3.80;91.50;;;;;;5064713;28;20932;-75
2022/01/05 02:50:58;;;;;;;14.20;9.23;;;3.80;91.70;;;;;;5067160;28;20182;-75
2022/01/05 02:53:24;;;;;;;18.73;9.10;;;3.80;91.70;;;;;;5064419;28;20175;-75
2022/01/05 02:55:51;;;;;;;12.57;8.83;;;3.80;91.70;;;;;;5065967;28;20183;-75
2022/01/05 02:58:16;;;;;;;15.33;8.50;;;3.80;91.80;;;;;;5062041;28;20191;-75
2022/01/05 03:00:42;;;;;;;21.80;9.23;;;3.80;91.50;;;;;;5064754;28;20809;-75
2022/01/05 03:03:08;;;;;;;18.30;9.50;;;3.80;91.20;;;;;;5063661;28;20202;-75
2022/01/05 03:05:34;;;;;;;22.37;11.77;;;3.70;91.10;;;;;;5065815;28;20198;-75
2022/01/05 03:07:59;;;;;;;17.30;10.83;;;3.70;91.10;;;;;;5064024;28;20961;-75
2022/01/05 03:10:25;;;;;;;21.23;11.67;;;3.70;91.60;;;;;;5064274;28;20183;-74
2022/01/05 03:12:51;;;;;;;19.53;10.83;;;3.60;92.30;;;;;;5061718;28;20182;-75
2022/01/05 03:15:17;;;;;;;17.70;10.13;;;3.70;92.10;;;;;;5063945;28;20224;-75
2022/01/05 03:17:43;;;;;;;18.90;11.07;;;3.70;92.10;;;;;;5063917;28;20182;-75
2022/01/05 03:20:11;;;;;;;20.90;11.33;;;3.70;92.20;;;;;;5065209;28;20594;-75
2022/01/05 03:22:36;;;;;;;21.10;11.77;;;3.70;92.10;;;;;;5065845;28;20175;-75
2022/01/05 03:25:03;;;;;;;21.57;11.00;;;3.60;92.10;;;;;;5067354;28;20187;-75
2022/01/05 03:27:29;;;;;;;23.43;12.27;;;3.70;92.30;;;;;;5062249;28;20270;-74
2022/01/05 03:29:54;;;;;;;21.70;12.47;;;3.70;92.20;;;;;;5061048;28;20274;-75
2022/01/05 03:32:21;;;;;;;21.90;11.40;;;3.60;92.20;;;;;;5059710;28;20233;-75
2022/01/05 03:34:47;;;;;;;15.23;9.37;;;3.60;92.50;;;;;;5062464;28;20183;-75
2022/01/05 03:37:13;;;;;;;20.77;9.80;;;3.60;92.40;;;;;;5063111;28;20209;-76
2022/01/05 03:39:38;;;;;;;17.57;10.27;;;3.60;92.50;;;;;;5067180;28;20210;-75
2022/01/05 03:42:05;;;;;;;14.53;9.57;;;3.60;92.50;;;;;;5058773;28;20183;-74
2022/01/05 03:44:31;;;;;;;17.20;10.33;;;3.60;93.00;;;;;;5062464;28;20236;-74
2022/01/05 03:46:56;;;;;;;17.50;10.47;;;3.50;92.80;;;;;;5066238;28;20179;-76
2022/01/05 03:49:23;;;;;;;18.30;9.63;;;3.50;92.30;;;;;;5057055;28;20297;-76
2022/01/05 03:51:49;;;;;;;17.17;10.00;;;3.50;92.50;;;;;;5058725;28;20300;-75
2022/01/05 03:54:14;;;;;;;14.60;8.67;;;3.50;92.50;;;;;;5063775;28;20938;-75
2022/01/05 03:56:40;;;;;;;15.70;9.33;;;3.50;92.40;;;;;;5060342;28;20181;-75
2022/01/05 03:59:06;;;;;;;17.90;9.87;;;3.40;92.60;;;;;;5054774;28;20222;-75
2022/01/05 04:01:31;;;;;;;12.87;8.30;;;3.40;92.90;;;;;;5061137;28;20236;-75
2022/01/05 04:03:57;;;;;;;13.93;8.50;;;3.40;93.10;;;;;;5064075;28;20679;-75
2022/01/05 04:06:23;;;;;;;15.10;9.67;;;3.50;93.00;;;;;;5061421;28;20182;-75
2022/01/05 04:08:48;;;;;;;14.90;8.53;;;3.50;93.00;;;;;;5065402;28;20815;-75
2022/01/05 04:11:14;;;;;;;13.10;8.70;;;3.50;92.80;;;;;;5059156;28;20179;-75
2022/01/05 04:13:40;;;;;;;13.33;8.07;;;3.50;92.50;;;;;;5061148;28;20187;-75
2022/01/05 04:16:06;;;;;;;14.30;9.20;;;3.40;92.50;;;;;;5063906;28;20278;-76
2022/01/05 04:18:32;;;;;;;16.30;8.83;;;3.40;92.60;;;;;;5061639;28;20189;-74
2022/01/05 04:20:57;;;;;;;23.40;10.00;;;3.40;92.80;;;;;;5061181;28;20215;-75
2022/01/05 04:23:23;;;;;;;13.50;8.63;;;3.40;92.70;;;;;;5062415;28;20190;-74
2022/01/05 04:25:49;;;;;;;12.47;7.73;;;3.40;92.70;;;;;;5060572;28;20266;-75
2022/01/05 04:28:15;;;;;;;12.80;8.07;;;3.40;92.80;;;;;;5050243;28;20183;-75
2022/01/05 04:30:40;;;;;;;11.23;7.43;;;3.40;93.00;;;;;;5058187;28;20328;-74
2022/01/05 04:33:06;;;;;;;14.73;7.47;;;3.40;93.00;;;;;;5064074;28;20183;-74
2022/01/05 04:35:32;;;;;;;15.60;8.67;;;3.40;92.80;;;;;;5058689;28;20187;-74
2022/01/05 04:37:58;;;;;;;16.17;9.10;;;3.40;92.70;;;;;;5064301;28;20194;-73
2022/01/05 04:40:23;;;;;;;15.63;8.40;;;3.30;92.60;;;;;;5062357;28;20394;-76
2022/01/05 04:42:49;;;;;;;15.23;8.10;;;3.40;92.70;;;;;;5061618;28;20272;-76
2022/01/05 04:45:15;;;;;;;12.27;7.27;;;3.40;92.60;;;;;;5061632;28;20253;-75
2022/01/05 04:47:40;;;;;;;19.43;8.73;;;3.30;92.70;;;;;;5063848;28;20183;-76
2022/01/05 04:50:07;;;;;;;13.77;7.73;;;3.30;92.70;;;;;;5063494;28;20179;-76
2022/01/05 04:52:33;;;;;;;13.50;8.23;;;3.30;92.70;;;;;;5065484;28;20244;-75
2022/01/05 04:54:58;;;;;;;12.73;7.83;;;3.30;92.70;;;;;;5067468;28;20264;-76
2022/01/05 04:57:24;;;;;;;12.77;8.50;;;3.30;92.50;;;;;;5065137;28;20195;-75
2022/01/05 04:59:50;;;;;;;12.97;8.30;;;3.30;92.40;;;;;;5065850;28;20213;-76
2022/01/05 05:02:15;;;;;;;13.40;8.27;;;3.30;92.30;;;;;;5065250;28;20191;-75
2022/01/05 05:04:41;;;;;;;14.40;8.00;;;3.20;92.30;;;;;;5064498;28;20260;-75
2022/01/05 05:07:07;;;;;;;14.07;7.83;;;3.20;92.70;;;;;;5066356;28;20179;-75
2022/01/05 05:09:33;;;;;;;14.93;8.63;;;3.10;93.00;;;;;;5062749;28;20187;-75
2022/01/05 05:11:58;;;;;;;18.67;10.70;;;3.10;93.20;;;;;;5059934;28;20195;-74
2022/01/05 05:14:24;;;;;;;20.73;9.83;;;3.10;93.30;;;;;;5067743;28;20317;-76
2022/01/05 05:16:50;;;;;;;17.50;10.10;;;3.10;93.40;;;;;;5066042;28;20202;-74
2022/01/05 05:19:16;;;;;;;15.60;8.97;;;3.10;93.50;;;;;;5064994;28;20190;-76
2022/01/05 05:21:41;;;;;;;14.30;8.80;;;3.10;93.50;;;;;;5059935;28;20218;-76
2022/01/05 05:24:07;;;;;;;15.80;9.30;;;3.10;93.50;;;;;;5060897;28;20187;-76
2022/01/05 05:26:33;;;;;;;15.30;8.47;;;3.10;93.40;;;;;;5065645;28;20183;-75
2022/01/05 05:28:59;;;;;;;18.10;9.03;;;3.10;93.40;;;;;;5063493;28;20187;-75
2022/01/05 05:31:24;;;;;;;15.70;8.90;;;3.10;93.30;;;;;;5066945;28;20187;-75
2022/01/05 05:33:50;;;;;;;12.70;8.13;;;3.10;93.30;;;;;;5065156;28;21024;-75
2022/01/05 05:36:16;;;;;;;13.70;8.37;;;3.10;93.40;;;;;;5067169;28;20186;-75
2022/01/05 05:38:41;;;;;;;11.67;6.97;;;3.10;93.70;;;;;;5064881;28;20186;-75
2022/01/05 05:41:07;;;;;;;13.70;8.40;;;3.10;93.90;;;;;;5064109;28;20742;-75
2022/01/05 05:43:33;;;;;;;15.57;8.03;;;3.10;93.90;;;;;;5065278;28;20183;-75
2022/01/05 05:45:59;;;;;;;20.40;9.00;;;3.10;93.80;;;;;;5064622;28;20190;-75
2022/01/05 05:48:24;;;;;;;13.23;8.33;;;3.10;93.80;;;;;;5063487;28;20187;-75
2022/01/05 05:50:50;;;;;;;12.27;7.57;;;3.20;93.70;;;;;;5066063;28;20837;-75
2022/01/05 05:53:16;;;;;;;15.70;8.83;;;3.20;93.70;;;;;;5066158;28;20672;-75
2022/01/05 05:55:41;;;;;;;14.03;8.03;;;3.20;93.60;;;;;;5065584;28;20665;-75
2022/01/05 05:58:07;;;;;;;11.90;7.33;;;3.20;93.40;;;;;;5066385;28;20293;-74
2022/01/05 06:00:33;;;;;;;16.43;9.23;;;3.20;93.50;;;;;;5062528;28;20293;-75
2022/01/05 06:03:00;;;;;;;16.03;8.93;;;3.20;93.40;;;;;;5064074;28;20198;-75
2022/01/05 06:05:27;;;;;;;16.20;7.77;;;3.20;93.20;;;;;;5060882;28;20194;-75
2022/01/05 06:07:52;;;;;;;16.63;9.10;;;3.10;93.30;;;;;;5062294;28;20191;-75
2022/01/05 06:10:18;;;;;;;13.87;7.57;;;3.10;93.30;;;;;;5061214;28;20207;-76
2022/01/05 06:12:44;;;;;;;12.90;8.90;;;3.10;93.60;;;;;;5063114;28;20186;-76
2022/01/05 06:15:10;;;;;;;12.43;8.33;;;3.10;93.70;;;;;;5063537;28;20183;-79
2022/01/05 06:17:36;;;;;;;13.83;8.97;;;3.10;93.80;;;;;;5064046;28;20746;-79
2022/01/05 06:20:04;;;;;;;13.50;7.77;;;3.20;93.80;;;;;;5064626;28;20215;-79
2022/01/05 06:22:30;;;;;;;14.77;9.83;;;3.20;93.90;;;;;;5063669;28;20282;-79
2022/01/05 06:24:56;;;;;;;16.10;9.53;;;3.20;93.70;;;;;;5062023;28;20179;-78
2022/01/05 06:27:22;;;;;;;14.23;8.77;;;3.20;93.90;;;;;;5062179;28;20202;-78
2022/01/05 06:29:47;;;;;;;11.33;7.87;;;3.30;94.00;;;;;;5066802;28;20244;-78
2022/01/05 06:32:13;;;;;;;18.97;9.60;;;3.40;94.10;;;;;;5062937;28;20183;-76
2022/01/05 06:34:39;;;;;;;17.33;9.97;;;3.40;94.30;;;;;;5065223;28;20179;-76
2022/01/05 06:37:05;;;;;;;15.23;9.83;;;3.60;94.60;;;;;;5058096;28;20187;-76
2022/01/05 06:39:30;;;;;;;14.40;9.93;;;3.80;94.80;;;;;;5064972;28;20237;-76
2022/01/05 06:41:56;;;;;;;14.23;8.90;;;4.00;94.70;;;;;;5061488;28;20179;-77
2022/01/05 06:44:22;;;;;;;12.87;9.10;;;4.20;94.60;;;;;;5063619;28;20183;-77
2022/01/05 06:46:48;;;;;;;14.67;9.83;;;4.50;94.90;;;;;;5061290;28;20817;-77
2022/01/05 06:49:13;;;;;;;13.90;8.77;;;4.90;95.00;;;;;;5080541;28;20630;-77
2022/01/05 06:51:39;;;;;;;13.93;9.70;;;5.30;94.10;;;;;;5079332;28;20703;-74
2022/01/05 06:54:05;;;;;;;18.03;10.37;;;5.60;93.70;;;;;;5064026;28;20206;-73
2022/01/05 06:56:30;;;;;;;17.67;10.33;;;5.90;92.20;;;;;;5060883;28;20710;-74
2022/01/05 06:58:56;;;;;;;15.63;9.27;;;6.10;90.00;;;;;;5061538;28;20199;-73
2022/01/05 07:01:22;;;;;;;20.63;10.40;;;6.30;89.50;;;;;;5062906;28;20215;-75
2022/01/05 07:03:47;;;;;;;17.60;10.60;;;6.40;89.60;;;;;;5076038;28;20622;-75
2022/01/05 07:06:13;;;;;;;17.43;10.47;;;6.70;89.70;;;;;;5062180;28;20644;-75
2022/01/05 07:08:39;;;;;;;20.43;11.53;;;7.10;90.00;;;;;;5060697;28;20206;-72
2022/01/05 07:11:05;;;;;;;16.40;10.53;;;7.50;90.10;;;;;;5062724;28;20210;-73
2022/01/05 07:13:31;;;;;;;15.33;11.20;;;8.10;89.20;;;;;;5064590;28;20797;-73
2022/01/05 07:15:57;;;;;;;19.03;11.57;;;8.70;87.60;;;;;;5064142;28;20186;-73
2022/01/05 07:18:23;;;;;;;21.27;11.53;;;9.30;85.80;;;;;;5067536;28;20186;-73
2022/01/05 07:20:48;;;;;;;14.77;11.13;;;9.80;84.80;;;;;;5063629;28;20726;-73
2022/01/05 07:23:14;;;;;;;16.70;11.47;;;10.20;83.40;;;;;;5064953;28;20187;-74
2022/01/05 07:25:40;;;;;;;21.13;12.32;;;10.70;82.20;;;;;;5062673;28;20183;-74
2022/01/05 07:28:06;;;;;;;16.52;12.45;;;11.20;80.60;;;;;;5062473;28;20187;-74
2022/01/05 07:30:32;;;;;;;17.15;12.18;;;11.60;80.10;;;;;;5062674;28;20190;-73
2022/01/05 07:32:58;;;;;;;17.88;11.88;;;12.10;79.20;;;;;;5064682;28;20792;-75
2022/01/05 07:35:23;;;;;;;17.17;11.80;;;12.60;78.40;;;;;;5064485;28;20187;-75
2022/01/05 07:37:49;;;;;;;25.90;12.85;;;13.20;77.30;;;;;;5063984;28;20190;-75
2022/01/05 07:40:15;;;;;;;20.00;12.85;;;13.60;75.70;;;;;;5062217;28;20211;-76
2022/01/05 07:42:41;;;;;;;21.38;14.13;;;14.00;75.20;;;;;;5063969;28;20721;-77
2022/01/05 07:45:09;;;;;;;31.40;14.85;;;14.50;74.00;;;;;;5063693;28;20228;-76
2022/01/05 07:47:35;;;;;;;23.75;15.73;;;14.90;73.40;;;;;;5065244;28;20629;-76
2022/01/05 07:50:02;;;;;;;19.38;14.60;;;15.30;72.20;;;;;;5064425;28;20197;-77
2022/01/05 07:52:28;;;;;;;23.10;16.08;;;15.70;70.40;;;;;;5065407;28;20207;-77
2022/01/05 07:54:54;;;;;;;27.67;16.73;;;16.00;69.10;;;;;;5061338;28;20697;-73
2022/01/05 07:57:20;;;;;;;27.88;18.17;;;16.30;67.50;;;;;;5060916;28;20191;-77
2022/01/05 07:59:46;;;;;;;28.63;20.73;;;16.50;67.90;;;;;;5055740;28;20206;-77
2022/01/05 08:02:12;;;;;;;38.85;22.98;;;16.70;66.00;;;;;;5065141;28;20194;-77
2022/01/05 08:04:38;;;;;;;37.47;23.80;;;16.60;65.20;;;;;;5063798;28;20179;-76
2022/01/05 08:07:03;;;;;;;37.35;25.02;;;16.60;65.60;;;;;;5065950;28;20183;-73
2022/01/05 08:09:30;;;;;;;49.88;28.85;;;16.90;65.90;;;;;;5065028;28;20187;-72
2022/01/05 08:11:57;;;;;;;48.40;29.02;;;17.20;64.70;;;;;;5064175;28;20182;-71
2022/01/05 08:14:22;;;;;;;54.40;30.67;;;17.60;65.50;;;;;;5063551;28;20617;-73
2022/01/05 08:16:48;;;;;;;53.20;30.88;;;17.90;64.30;;;;;;5063410;28;20186;-72
2022/01/05 08:19:14;;;;;;;56.88;32.85;;;18.30;64.10;;;;;;5064447;28;20186;-72
2022/01/05 08:21:40;;;;;;;62.83;36.05;;;18.70;62.30;;;;;;5062994;28;21169;-74
2022/01/05 08:24:06;;;;;;;56.95;33.55;;;18.60;61.10;;;;;;5063209;28;20206;-74
2022/01/05 08:26:32;;;;;;;57.25;33.28;;;18.70;61.80;;;;;;5066508;28;20183;-74
2022/01/05 08:28:58;;;;;;;43.40;29.35;;;19.00;61.70;;;;;;5063583;28;20186;-73
2022/01/05 08:31:23;;;;;;;53.38;26.42;;;19.30;61.60;;;;;;5062298;28;20193;-73
2022/01/05 08:33:49;;;;;;;30.95;20.05;;;19.60;61.10;;;;;;5061902;28;20189;-73
2022/01/05 08:36:15;;;;;;;30.85;19.17;;;20.00;60.00;;;;;;5064637;28;20592;-73
2022/01/05 08:38:41;;;;;;;24.52;15.55;;;20.30;60.10;;;;;;5063448;28;20179;-73
2022/01/05 08:41:07;;;;;;;21.65;15.15;;;20.50;58.90;;;;;;5063290;28;20268;-72
2022/01/05 08:43:33;;;;;;;23.92;15.30;;;20.70;57.80;;;;;;5061988;28;20189;-73
2022/01/05 08:46:00;;;;;;;24.10;13.50;;;20.80;58.00;;;;;;5060977;28;20175;-72
2022/01/05 08:48:25;;;;;;;20.15;12.80;;;20.90;57.70;;;;;;5061173;28;20207;-73
2022/01/05 08:50:51;;;;;;;13.50;12.05;;;20.70;57.20;;;;;;5063093;28;20738;-72
2022/01/05 08:53:17;;;;;;;20.42;12.30;;;20.80;57.10;;;;;;5061561;28;20360;-73
2022/01/05 08:55:46;;;;;;;16.67;11.95;;;20.90;57.60;;;;;;5061728;28;20197;-71
2022/01/05 08:58:13;;;;;;;20.40;12.55;;;21.10;58.00;;;;;;5063640;28;20202;-73
2022/01/05 09:04:01;;;;;;;14.82;12.25;;;21.80;55.10;;;;;;5064559;28;20641;-72
2022/01/05 09:06:26;;;;;;;15.85;11.63;;;22.20;56.20;;;;;;5062143;28;20191;-73
2022/01/05 09:08:52;;;;;;;13.10;10.18;;;22.40;54.30;;;;;;5063845;28;20190;-72
2022/01/05 09:11:19;;;;;;;13.20;11.35;;;22.30;54.00;;;;;;5064019;28;20785;-72
2022/01/05 09:13:45;;;;;;;17.85;10.35;;;22.40;54.10;;;;;;5057536;28;20283;-73
2022/01/05 09:16:11;;;;;;;11.52;10.00;;;22.40;54.50;;;;;;5058904;28;20662;-73
2022/01/05 09:18:36;;;;;;;15.50;10.60;;;22.50;54.00;;;;;;5062854;28;20190;-73
2022/01/05 09:21:02;;;;;;;17.20;10.52;;;22.60;51.80;;;;;;5057468;28;20699;-73
2022/01/05 09:23:28;;;;;;;13.57;10.23;;;22.70;52.90;;;;;;5060927;28;20225;-73
2022/01/05 09:25:54;;;;;;;11.30;9.65;;;22.70;53.40;;;;;;5060426;28;20194;-73
2022/01/05 09:28:19;;;;;;;11.73;10.52;;;22.70;54.50;;;;;;5057181;28;20206;-74
2022/01/05 09:30:46;;;;;;;12.73;9.98;;;22.90;53.90;;;;;;5063298;28;20198;-73
2022/01/05 09:33:16;;;;;;;13.50;10.13;;;23.20;53.90;;;;;;5073282;28;20187;-73
2022/01/05 09:35:42;;;;;;;10.95;9.80;;;23.10;54.50;;;;;;5057343;28;20691;-73
2022/01/05 09:38:21;;;;;;;11.07;9.98;;;23.00;52.20;;;;;;5060582;28;20175;-72
2022/01/05 09:43:55;;;;;;;9.10;8.20;;;23.20;52.30;;;;;;5062818;28;20563;-73
2022/01/05 09:46:55;;;;;;;10.02;9.00;;;22.80;51.40;;;;;;5062747;28;20179;-74
2022/01/05 09:49:35;;;;;;;9.23;8.38;;;22.70;51.40;;;;;;5062502;28;20175;-74
2022/01/05 09:52:09;;;;;;;11.05;8.43;;;22.90;53.00;;;;;;5063675;28;20251;-74
2022/01/05 09:54:37;;;;;;;8.85;7.97;;;22.80;51.30;;;;;;5059926;28;20190;-75
2022/01/05 09:57:04;;;;;;;9.27;8.35;;;22.90;52.90;;;;;;5061188;28;20206;-74
2022/01/05 09:59:34;;;;;;;11.80;7.57;;;23.10;52.10;;;;;;5064801;28;20277;-75
2022/01/05 10:01:59;;;;;;;8.05;7.43;;;23.00;52.70;;;;;;5062452;28;20187;-74
2022/01/05 10:04:25;;;;;;;8.00;7.20;;;23.00;51.90;;;;;;5062881;28;20175;-73
2022/01/05 10:06:51;;;;;;;7.80;7.10;;;23.00;51.50;;;;;;5062480;28;20218;-74
2022/01/05 10:09:17;;;;;;;9.30;7.25;;;22.70;51.40;;;;;;5066080;28;20183;-74
2022/01/05 10:11:43;;;;;;;9.23;7.20;;;22.20;51.90;;;;;;5060362;28;20278;-72
2022/01/05 10:14:12;;;;;;;7.97;7.18;;;21.70;53.40;;;;;;5064273;28;20708;-73
2022/01/05 10:16:39;;;;;;;10.63;7.47;;;21.60;54.90;;;;;;5064240;28;20222;-74
2022/01/05 10:19:06;;;;;;;8.75;7.50;;;21.70;54.80;;;;;;5064606;28;20183;-73
2022/01/05 10:21:39;;;;;;;8.68;7.40;;;21.90;53.70;;;;;;5062287;28;20211;-76
2022/01/05 10:24:05;;;;;;;6.80;6.20;;;21.80;52.20;;;;;;5059062;28;20914;-74
2022/01/05 10:26:39;;;;;;;7.65;6.38;;;21.60;52.30;;;;;;5057621;28;20986;-73
2022/01/05 10:29:17;;;;;;;10.63;6.95;;;21.50;54.80;;;;;;5062904;28;20345;-74
2022/01/05 10:31:50;;;;;;;10.32;7.03;;;21.40;53.90;;;;;;5057310;28;20237;-73
2022/01/05 10:34:24;;;;;;;7.53;6.68;;;21.40;54.30;;;;;;5063034;28;20190;-72
2022/01/05 10:36:53;;;;;;;8.93;6.20;;;21.60;53.90;;;;;;5064271;28;20189;-73
2022/01/05 10:39:27;;;;;;;8.43;6.57;;;21.70;54.60;;;;;;5066036;28;20179;-73
2022/01/05 10:41:53;;;;;;;6.25;5.35;;;21.90;51.90;;;;;;5059236;28;20310;-73
2022/01/05 10:44:21;;;;;;;6.07;5.57;;;22.00;50.90;;;;;;5064055;28;20288;-74
2022/01/05 10:46:53;;;;;;;7.03;6.38;;;22.00;53.90;;;;;;5059451;28;20234;-74
2022/01/05 10:49:34;;;;;;;7.15;5.50;;;22.20;51.60;;;;;;5064183;28;20644;-73
2022/01/05 10:52:19;;;;;;;6.28;5.68;;;22.50;53.60;;;;;;5062209;28;20187;-73
2022/01/05 10:54:45;;;;;;;7.18;6.28;;;22.90;50.90;;;;;;5063537;28;20183;-74
2022/01/05 10:57:14;;;;;;;6.95;6.30;;;23.10;52.00;;;;;;5054477;28;20194;-74
2022/01/05 10:59:46;;;;;;;6.30;5.68;;;23.30;52.30;;;;;;5055726;28;20175;-76
2022/01/05 11:02:32;;;;;;;6.28;5.57;;;23.40;52.00;;;;;;5055760;28;20558;-76
2022/01/05 11:05:08;;;;;;;9.35;6.47;;;23.70;50.90;;;;;;5063838;28;20206;-77
2022/01/05 11:07:39;;;;;;;9.02;6.45;;;24.10;50.10;;;;;;5062442;28;20660;-78
2022/01/05 11:10:17;;;;;;;12.60;6.45;;;24.40;51.50;;;;;;5063324;28;20244;-78
2022/01/05 11:12:44;;;;;;;7.32;5.75;;;24.70;49.90;;;;;;5064519;28;20193;-78
2022/01/05 11:15:19;;;;;;;6.72;5.97;;;24.70;51.50;;;;;;5065103;28;20570;-78
2022/01/05 11:18:04;;;;;;;6.43;5.85;;;25.00;49.00;;;;;;5058064;28;20198;-78
2022/01/05 11:20:29;;;;;;;9.63;6.07;;;25.00;47.60;;;;;;5061149;28;20211;-77
2022/01/05 11:22:55;;;;;;;7.63;6.28;;;24.80;49.40;;;;;;5063505;28;20640;-79
2022/01/05 11:25:21;;;;;;;7.88;6.68;;;24.40;50.30;;;;;;5063488;28;20248;-78
2022/01/05 11:27:47;;;;;;;7.00;5.57;;;24.20;49.40;;;;;;5063862;28;20187;-78
2022/01/05 11:30:12;;;;;;;7.72;6.25;;;24.10;51.90;;;;;;5064296;28;20213;-78
2022/01/05 11:32:39;;;;;;;8.70;6.25;;;24.00;47.90;;;;;;5065890;28;20254;-79
2022/01/05 11:35:07;;;;;;;7.28;6.40;;;23.60;49.50;;;;;;5062228;28;20183;-79
2022/01/05 11:37:34;;;;;;;6.55;5.95;;;23.20;52.30;;;;;;5057193;28;20249;-79
2022/01/05 11:40:04;;;;;;;9.52;6.10;;;23.10;51.30;;;;;;5059881;28;20986;-79
2022/01/05 11:42:33;;;;;;;10.15;5.97;;;22.80;52.50;;;;;;5061395;28;20583;-79
2022/01/05 11:44:59;;;;;;;6.55;6.00;;;22.80;53.10;;;;;;5063109;28;20554;-79
2022/01/05 11:47:28;;;;;;;6.88;5.68;;;22.90;53.00;;;;;;5064589;28;20569;-79
2022/01/05 11:50:14;;;;;;;8.48;6.18;;;23.00;52.60;;;;;;5062487;28;20615;-77
2022/01/05 11:53:17;;;;;;;8.68;5.10;;;23.10;52.70;;;;;;5062492;28;20191;-76
2022/01/05 11:55:57;;;;;;;6.40;5.65;;;23.40;49.70;;;;;;5042906;28;20175;-75
2022/01/05 11:58:27;;;;;;;5.97;5.32;;;23.80;49.70;;;;;;5053622;28;20237;-75
2022/01/05 12:01:26;;;;;;;6.28;5.78;;;24.10;51.20;;;;;;5059865;28;20789;-75
2022/01/05 12:03:57;;;;;;;6.55;6.03;;;24.50;48.90;;;;;;4954064;28;20286;-76
2022/01/05 12:06:35;;;;;;;6.60;6.00;;;24.70;50.50;;;;;;4956932;28;20286;-77
2022/01/05 12:09:16;;;;;;;5.80;5.28;;;24.70;50.20;;;;;;4950793;28;20194;-76
2022/01/05 12:11:43;;;;;;;5.47;4.97;;;24.60;49.70;;;;;;4950592;28;20269;-76
2022/01/05 12:14:20;;;;;;;6.00;5.65;;;24.50;50.50;;;;;;4952388;28;20186;-76
2022/01/05 12:17:07;;;;;;;8.65;6.10;;;24.50;49.00;;;;;;4953857;28;20271;-76
2022/01/05 12:19:55;;;;;;;6.15;5.32;;;24.50;49.90;;;;;;4952802;28;20197;-77
2022/01/05 12:22:23;;;;;;;10.98;5.50;;;24.60;48.90;;;;;;4949894;28;20191;-76
2022/01/05 12:25:03;;;;;;;6.50;5.95;;;24.60;50.70;;;;;;4952382;28;20190;-75
2022/01/05 12:27:32;;;;;;;6.85;5.32;;;24.50;51.10;;;;;;4948207;28;20705;-75
2022/01/05 12:29:59;;;;;;;5.30;4.82;;;24.30;50.90;;;;;;4966879;28;20205;-75
2022/01/05 12:32:43;;;;;;;6.18;5.32;;;23.90;50.70;;;;;;4978422;28;20925;-74
2022/01/05 12:35:15;;;;;;;6.55;5.75;;;23.60;49.60;;;;;;4975195;28;20846;-74
2022/01/05 12:37:54;;;;;;;6.38;5.78;;;23.40;51.80;;;;;;4978489;28;20185;-75
2022/01/05 12:40:28;;;;;;;8.55;6.18;;;23.30;50.90;;;;;;5045887;28;20305;-74
2022/01/05 12:43:06;;;;;;;6.00;5.60;;;23.20;52.70;;;;;;5058575;28;20213;-75
2022/01/05 12:45:50;;;;;;;6.85;5.43;;;23.30;52.10;;;;;;5060946;28;20253;-75
2022/01/05 12:48:39;;;;;;;7.05;5.78;;;23.40;51.70;;;;;;5061670;28;20216;-74
2022/01/05 12:54:12;;;;;;;7.70;6.72;;;23.50;49.90;;;;;;5054775;28;20256;-75